Time;durP1;ratioP1;P1;durP2;ratioP2;P2;SDS_P1;SDS_P2;PMS_P1;PMS_P2;Temp;Humidity;BMP_temperature;BMP_pressure;BME280_temperature;BME280_humidity;BME280_pressure;Samples;Min_cycle;Max_cycle;Signal;HPM_P1;HPM_P2
2021/07/24 00:03:54;;;;;;;7.93;6.70;;;;;;;;;;10433844;28;20029;-83
2021/07/24 00:08:54;;;;;;;7.50;6.70;;;;;;;;;;10434001;28;20041;-83
2021/07/24 00:13:55;;;;;;;7.23;6.50;;;;;;;;;;10432261;28;20029;-83
2021/07/24 00:18:55;;;;;;;10.07;6.97;;;;;;;;;;10432404;28;20490;-82
2021/07/24 00:23:56;;;;;;;9.63;7.07;;;;;;;;;;10432820;28;20047;-82
2021/07/24 00:28:56;;;;;;;7.93;6.20;;;;;;;;;;10432438;28;20041;-82
2021/07/24 00:33:56;;;;;;;7.65;6.53;;;;;;;;;;10432462;28;20070;-82
2021/07/24 00:38:57;;;;;;;7.77;6.60;;;;;;;;;;10432435;28;20064;-83
2021/07/24 00:44:00;;;;;;;9.20;5.73;;;;;;;;;;10433104;28;20017;-82
2021/07/24 00:49:02;;;;;;;8.32;6.55;;;;;;;;;;10432226;28;20079;-82
2021/07/24 00:54:03;;;;;;;6.53;5.85;;;;;;;;;;10431405;28;20100;-82
2021/07/24 00:59:03;;;;;;;6.82;6.13;;;;;;;;;;10430455;28;20061;-82
2021/07/24 01:04:04;;;;;;;7.60;6.10;;;;;;;;;;10431148;28;20029;-83
2021/07/24 01:09:04;;;;;;;7.37;6.43;;;;;;;;;;10431270;28;20032;-82
2021/07/24 01:14:05;;;;;;;10.30;5.90;;;;;;;;;;10431555;28;20029;-82
2021/07/24 01:19:05;;;;;;;7.22;6.05;;;;;;;;;;10430448;28;20516;-82
2021/07/24 01:24:05;;;;;;;10.73;6.13;;;;;;;;;;10430310;28;20057;-82
2021/07/24 01:29:06;;;;;;;7.70;6.37;;;;;;;;;;10430406;28;20060;-83
2021/07/24 01:34:06;;;;;;;7.37;6.40;;;;;;;;;;10430618;28;20026;-83
2021/07/24 01:39:08;;;;;;;7.80;6.37;;;;;;;;;;10429031;28;20045;-83
2021/07/24 01:44:08;;;;;;;6.55;5.88;;;;;;;;;;10428589;28;20034;-83
2021/07/24 01:49:13;;;;;;;8.87;6.43;;;;;;;;;;10429800;28;20116;-83
2021/07/24 01:54:26;;;;;;;7.45;6.10;;;;;;;;;;10429770;28;20029;-83
2021/07/24 01:59:28;;;;;;;6.20;5.57;;;;;;;;;;10426420;28;20106;-82
2021/07/24 02:04:30;;;;;;;7.57;6.57;;;;;;;;;;10427495;28;20483;-82
2021/07/24 02:09:30;;;;;;;6.60;5.90;;;;;;;;;;10427996;28;20060;-82
2021/07/24 02:14:34;;;;;;;6.43;5.80;;;;;;;;;;10425079;28;20065;-82
2021/07/24 02:19:35;;;;;;;7.15;6.10;;;;;;;;;;10427432;28;20032;-83
2021/07/24 02:24:35;;;;;;;7.30;6.30;;;;;;;;;;10427271;28;20080;-83
2021/07/24 02:29:36;;;;;;;7.77;6.40;;;;;;;;;;10428279;28;20036;-82
2021/07/24 02:34:36;;;;;;;6.20;5.60;;;;;;;;;;10424095;28;20032;-82
2021/07/24 02:39:36;;;;;;;9.73;6.00;;;;;;;;;;10426252;28;20075;-81
2021/07/24 02:44:37;;;;;;;6.93;6.23;;;;;;;;;;10427046;28;20034;-81
2021/07/24 02:49:38;;;;;;;8.60;6.37;;;;;;;;;;10426963;28;20025;-81
2021/07/24 02:54:39;;;;;;;9.77;6.97;;;;;;;;;;10428007;28;20376;-81
2021/07/24 02:59:39;;;;;;;6.53;5.90;;;;;;;;;;10427734;28;20025;-81
2021/07/24 03:04:39;;;;;;;8.83;6.60;;;;;;;;;;10427518;28;20482;-81
2021/07/24 03:09:40;;;;;;;8.27;6.20;;;;;;;;;;10427321;28;20033;-81
2021/07/24 03:14:40;;;;;;;7.93;6.10;;;;;;;;;;10427606;28;20112;-81
2021/07/24 03:19:40;;;;;;;9.17;6.50;;;;;;;;;;10427665;28;20084;-81
2021/07/24 03:24:41;;;;;;;8.40;5.90;;;;;;;;;;10427062;28;20033;-82
2021/07/24 03:29:41;;;;;;;7.20;5.53;;;;;;;;;;10427754;28;20084;-82
2021/07/24 03:34:42;;;;;;;8.57;6.43;;;;;;;;;;10427464;28;20500;-81
2021/07/24 03:39:42;;;;;;;9.50;6.27;;;;;;;;;;10427286;28;20057;-83
2021/07/24 03:44:42;;;;;;;11.93;5.90;;;;;;;;;;10426982;28;20446;-83
2021/07/24 03:49:43;;;;;;;7.03;5.73;;;;;;;;;;10426920;28;20443;-83
2021/07/24 03:54:43;;;;;;;7.83;6.47;;;;;;;;;;10427170;28;20037;-82
2021/07/24 03:59:44;;;;;;;7.50;6.00;;;;;;;;;;10427087;28;20032;-83
2021/07/24 04:04:47;;;;;;;7.55;6.20;;;;;;;;;;10433504;28;20033;-85
2021/07/24 04:09:48;;;;;;;6.38;5.72;;;;;;;;;;10433557;28;20033;-85
2021/07/24 04:14:49;;;;;;;6.53;5.60;;;;;;;;;;10433343;28;20112;-84
2021/07/24 04:19:50;;;;;;;7.05;6.10;;;;;;;;;;10432903;28;20036;-83
2021/07/24 04:24:51;;;;;;;6.85;5.55;;;;;;;;;;10433057;28;20044;-84
2021/07/24 04:29:51;;;;;;;6.68;5.75;;;;;;;;;;10433177;28;20033;-84
2021/07/24 04:34:51;;;;;;;7.27;6.10;;;;;;;;;;10432030;28;20087;-85
2021/07/24 04:39:52;;;;;;;6.30;5.37;;;;;;;;;;10432766;28;20078;-85
2021/07/24 04:44:52;;;;;;;9.65;6.63;;;;;;;;;;10432386;28;20451;-85
2021/07/24 04:49:53;;;;;;;7.27;6.23;;;;;;;;;;10431922;28;20044;-85
2021/07/24 04:54:54;;;;;;;7.07;5.97;;;;;;;;;;10431897;28;20467;-85
2021/07/24 04:59:55;;;;;;;10.13;6.40;;;;;;;;;;10432096;28;20031;-85
2021/07/24 05:04:56;;;;;;;7.75;6.32;;;;;;;;;;10417859;28;20437;-85
2021/07/24 05:09:56;;;;;;;7.38;6.28;;;;;;;;;;10431409;28;20029;-86
2021/07/24 05:14:57;;;;;;;6.97;6.13;;;;;;;;;;10431285;28;20060;-85
2021/07/24 05:19:57;;;;;;;7.47;6.17;;;;;;;;;;10430782;28;20025;-85
2021/07/24 05:24:57;;;;;;;7.50;6.23;;;;;;;;;;10431209;28;20117;-91
2021/07/24 05:29:58;;;;;;;8.70;6.40;;;;;;;;;;10430958;28;20443;-87
2021/07/24 05:34:58;;;;;;;10.30;6.35;;;;;;;;;;10430580;28;20064;-87
2021/07/24 05:39:59;;;;;;;11.07;7.10;;;;;;;;;;10429714;28;20045;-87
2021/07/24 05:44:59;;;;;;;8.73;6.20;;;;;;;;;;10429831;28;20021;-86
2021/07/24 05:50:00;;;;;;;9.87;6.43;;;;;;;;;;10429484;28;20041;-87
2021/07/24 05:55:01;;;;;;;11.55;7.80;;;;;;;;;;10429440;28;20116;-87
2021/07/24 06:00:01;;;;;;;13.07;7.60;;;;;;;;;;10429260;28;20125;-86
2021/07/24 06:05:02;;;;;;;10.32;7.38;;;;;;;;;;10429485;28;20076;-86
2021/07/24 06:10:03;;;;;;;9.20;6.53;;;;;;;;;;10428999;28;20097;-88
2021/07/24 06:15:04;;;;;;;9.02;6.65;;;;;;;;;;10429216;28;20030;-87
2021/07/24 06:20:05;;;;;;;8.05;6.65;;;;;;;;;;10428818;28;20030;-87
2021/07/24 06:25:05;;;;;;;9.02;6.70;;;;;;;;;;10427715;28;20174;-87
2021/07/24 06:30:07;;;;;;;8.18;6.40;;;;;;;;;;10429005;28;20123;-86
2021/07/24 06:35:08;;;;;;;9.20;6.35;;;;;;;;;;10428648;28;20025;-86
2021/07/24 06:40:09;;;;;;;8.82;6.18;;;;;;;;;;10498605;23;20049;-86
2021/07/24 06:45:10;;;;;;;8.88;7.00;;;;;;;;;;10428628;28;20028;-86
2021/07/24 06:50:11;;;;;;;10.07;6.63;;;;;;;;;;10456831;28;20400;-85
2021/07/24 06:55:11;;;;;;;8.55;6.82;;;;;;;;;;10454744;28;20029;-86
2021/07/24 07:00:12;;;;;;;8.13;6.40;;;;;;;;;;10455091;28;20098;-85
2021/07/24 07:05:12;;;;;;;7.32;6.30;;;;;;;;;;10438432;28;20021;-86
2021/07/24 07:10:13;;;;;;;12.40;6.63;;;;;;;;;;10387336;28;20092;-86
2021/07/24 07:15:14;;;;;;;6.70;6.00;;;;;;;;;;10441854;28;20024;-89
2021/07/24 07:20:14;;;;;;;10.40;6.45;;;;;;;;;;10414268;28;20465;-86
2021/07/24 07:25:15;;;;;;;7.05;6.30;;;;;;;;;;10429049;28;20413;-86
2021/07/24 07:30:15;;;;;;;8.55;6.50;;;;;;;;;;10414226;28;20033;-86
2021/07/24 07:35:15;;;;;;;6.13;5.53;;;;;;;;;;10425522;28;20108;-86
2021/07/24 07:40:17;;;;;;;6.43;5.73;;;;;;;;;;10440639;28;20049;-86
2021/07/24 07:45:17;;;;;;;8.10;6.18;;;;;;;;;;10455347;28;20964;-86
2021/07/24 07:50:18;;;;;;;8.63;6.77;;;;;;;;;;10443748;28;20040;-86
2021/07/24 07:55:18;;;;;;;6.90;5.78;;;;;;;;;;10450448;28;20853;-85
2021/07/24 08:00:19;;;;;;;7.30;5.70;;;;;;;;;;10449043;28;20021;-85
2021/07/24 08:05:20;;;;;;;6.10;5.50;;;;;;;;;;10446972;28;20511;-85
2021/07/24 08:10:20;;;;;;;7.05;5.43;;;;;;;;;;10434116;28;20048;-85
2021/07/24 08:15:20;;;;;;;7.40;6.13;;;;;;;;;;10449652;28;20121;-85
2021/07/24 08:20:21;;;;;;;6.60;5.97;;;;;;;;;;10418842;28;20529;-86
2021/07/24 08:25:21;;;;;;;6.40;5.70;;;;;;;;;;10433627;28;20036;-85
2021/07/24 08:30:22;;;;;;;8.63;5.83;;;;;;;;;;10434568;28;20311;-85
2021/07/24 08:35:22;;;;;;;8.02;5.68;;;;;;;;;;10410415;28;20025;-85
2021/07/24 08:40:23;;;;;;;7.27;6.17;;;;;;;;;;10431964;28;20484;-86
2021/07/24 08:45:23;;;;;;;6.40;5.60;;;;;;;;;;10452592;28;20032;-85
2021/07/24 08:50:24;;;;;;;9.13;5.65;;;;;;;;;;10439312;28;20053;-86
2021/07/24 08:55:24;;;;;;;6.73;5.83;;;;;;;;;;10446285;28;20028;-85
2021/07/24 09:00:27;;;;;;;7.03;5.43;;;;;;;;;;10416685;28;20489;-86
2021/07/24 09:05:30;;;;;;;8.15;5.82;;;;;;;;;;10430989;28;20464;-86
2021/07/24 09:10:30;;;;;;;8.75;5.60;;;;;;;;;;10414264;28;20119;-86
2021/07/24 09:15:31;;;;;;;5.53;4.90;;;;;;;;;;10395746;28;20507;-85
2021/07/24 09:20:32;;;;;;;8.40;6.13;;;;;;;;;;10443378;28;20033;-85
2021/07/24 09:25:41;;;;;;;6.75;5.38;;;;;;;;;;10457460;28;20491;-86
2021/07/24 09:30:42;;;;;;;15.30;5.78;;;;;;;;;;10407036;28;20034;-86
2021/07/24 09:35:44;;;;;;;6.70;5.60;;;;;;;;;;10426835;28;20038;-85
2021/07/24 09:40:46;;;;;;;11.20;6.00;;;;;;;;;;10429806;28;20041;-87
2021/07/24 09:45:46;;;;;;;9.25;6.50;;;;;;;;;;10431165;28;20109;-85
2021/07/24 09:51:04;;;;;;;11.97;6.77;;;;;;;;;;10417332;28;20109;-85
2021/07/24 10:08:09;;;;;;;6.55;5.38;;;;;;;;;;10412058;28;20053;-86
2021/07/24 10:13:12;;;;;;;11.38;5.85;;;;;;;;;;10402238;28;20030;-83
2021/07/24 10:18:14;;;;;;;7.57;5.68;;;;;;;;;;10440905;28;20029;-81
2021/07/24 10:23:19;;;;;;;8.23;6.45;;;;;;;;;;10424828;28;20025;-82
2021/07/24 10:28:25;;;;;;;12.05;5.82;;;;;;;;;;10441903;28;20032;-82
2021/07/24 10:33:30;;;;;;;7.20;5.53;;;;;;;;;;10441069;28;20043;-82
2021/07/24 10:38:32;;;;;;;7.35;5.15;;;;;;;;;;10443380;28;20053;-81
2021/07/24 10:44:04;;;;;;;8.70;5.50;;;;;;;;;;10401801;28;20034;-80
2021/07/24 10:49:04;;;;;;;11.15;5.50;;;;;;;;;;10415583;28;20083;-80
2021/07/24 10:54:06;;;;;;;8.43;6.57;;;;;;;;;;10421108;28;20432;-79
2021/07/24 10:59:26;;;;;;;6.97;5.28;;;;;;;;;;10408388;28;20037;-81
2021/07/24 11:04:35;;;;;;;6.97;5.28;;;;;;;;;;10416897;28;20492;-82
2021/07/24 11:09:35;;;;;;;9.15;5.18;;;;;;;;;;10411345;28;20065;-81
2021/07/24 11:14:42;;;;;;;7.05;5.38;;;;;;;;;;10422178;28;20103;-81
2021/07/24 11:19:51;;;;;;;7.68;5.28;;;;;;;;;;10422398;28;20377;-82
2021/07/24 11:24:52;;;;;;;5.57;4.97;;;;;;;;;;10435270;28;20037;-81
2021/07/24 11:29:53;;;;;;;6.10;4.40;;;;;;;;;;10422961;28;20087;-80
2021/07/24 11:35:05;;;;;;;7.38;5.32;;;;;;;;;;10453211;28;20358;-81
2021/07/24 11:40:07;;;;;;;6.68;4.65;;;;;;;;;;10412637;28;20491;-82
2021/07/24 11:45:09;;;;;;;7.95;4.90;;;;;;;;;;10423456;28;20116;-81
2021/07/24 11:50:20;;;;;;;7.07;4.95;;;;;;;;;;10418605;28;20029;-81
2021/07/24 11:55:36;;;;;;;9.50;5.68;;;;;;;;;;10456646;28;20029;-84
2021/07/24 12:00:38;;;;;;;7.43;5.32;;;;;;;;;;10433269;28;20036;-79
2021/07/24 12:05:38;;;;;;;6.72;5.05;;;;;;;;;;10428932;28;20088;-80
2021/07/24 12:10:47;;;;;;;5.68;5.10;;;;;;;;;;10421834;28;20428;-80
2021/07/24 12:16:04;;;;;;;5.03;4.53;;;;;;;;;;10453015;28;20104;-80
2021/07/24 12:21:09;;;;;;;9.77;4.73;;;;;;;;;;10460360;28;20021;-80
2021/07/24 12:26:13;;;;;;;7.05;5.10;;;;;;;;;;10433766;28;20108;-80
2021/07/24 12:31:22;;;;;;;5.93;4.78;;;;;;;;;;10456537;28;20018;-80
2021/07/24 12:36:23;;;;;;;6.10;4.65;;;;;;;;;;10460588;28;20056;-81
2021/07/24 12:41:29;;;;;;;7.90;5.38;;;;;;;;;;10432998;28;20469;-80
2021/07/24 12:46:29;;;;;;;7.78;4.78;;;;;;;;;;10446564;28;20092;-81
2021/07/24 12:51:36;;;;;;;7.68;4.78;;;;;;;;;;10459710;28;20079;-80
2021/07/24 12:56:39;;;;;;;5.27;4.70;;;;;;;;;;10447654;28;20383;-80
2021/07/24 13:01:52;;;;;;;5.75;4.85;;;;;;;;;;10458460;28;20346;-80
2021/07/24 13:06:52;;;;;;;8.10;5.13;;;;;;;;;;10406850;28;20065;-80
2021/07/24 13:11:53;;;;;;;5.63;4.60;;;;;;;;;;10401339;28;20064;-80
2021/07/24 13:16:53;;;;;;;5.77;4.70;;;;;;;;;;10391180;28;20026;-80
2021/07/24 13:21:53;;;;;;;5.03;4.47;;;;;;;;;;10430170;28;20025;-80
2021/07/24 13:32:13;;;;;;;6.43;4.85;;;;;;;;;;10458329;28;20029;-80
2021/07/24 13:37:14;;;;;;;7.85;4.85;;;;;;;;;;10458070;28;20053;-80
2021/07/24 13:42:15;;;;;;;6.13;4.72;;;;;;;;;;10448070;28;20053;-80
2021/07/24 13:47:23;;;;;;;6.80;4.97;;;;;;;;;;10409348;28;20061;-80
2021/07/24 13:52:24;;;;;;;4.90;4.15;;;;;;;;;;10390213;28;20788;-81
2021/07/24 13:57:26;;;;;;;5.30;4.80;;;;;;;;;;10446251;28;20024;-81
2021/07/24 14:02:27;;;;;;;5.10;4.60;;;;;;;;;;10436588;28;20045;-82
2021/07/24 14:07:27;;;;;;;6.97;4.80;;;;;;;;;;10450659;28;20068;-81
2021/07/24 14:12:28;;;;;;;6.47;4.78;;;;;;;;;;10452103;28;20426;-82
2021/07/24 14:17:28;;;;;;;4.93;4.50;;;;;;;;;;10448290;28;20048;-82
2021/07/24 14:22:28;;;;;;;5.88;4.63;;;;;;;;;;10438552;28;20954;-81
2021/07/24 14:27:29;;;;;;;5.20;4.70;;;;;;;;;;10446389;28;20035;-81
2021/07/24 14:32:29;;;;;;;5.07;4.50;;;;;;;;;;10442848;28;20107;-81
2021/07/24 14:37:30;;;;;;;6.33;4.70;;;;;;;;;;10455775;28;20056;-81
2021/07/24 14:42:30;;;;;;;7.23;5.10;;;;;;;;;;10449047;28;20107;-81
2021/07/24 14:47:30;;;;;;;5.50;5.00;;;;;;;;;;10441233;28;20442;-81
2021/07/24 14:52:31;;;;;;;6.13;4.87;;;;;;;;;;10455903;28;20456;-80
2021/07/24 14:57:31;;;;;;;8.03;4.60;;;;;;;;;;10447670;28;20091;-81
2021/07/24 15:02:32;;;;;;;6.00;4.57;;;;;;;;;;10428423;28;20035;-80
2021/07/24 15:07:32;;;;;;;7.60;4.80;;;;;;;;;;10435870;28;20033;-80
2021/07/24 15:12:32;;;;;;;5.37;4.87;;;;;;;;;;10427289;28;20068;-80
2021/07/24 15:17:33;;;;;;;5.13;4.43;;;;;;;;;;10427770;28;20485;-80
2021/07/24 15:22:34;;;;;;;4.80;4.30;;;;;;;;;;10456342;28;20075;-79
2021/07/24 15:27:35;;;;;;;5.13;4.63;;;;;;;;;;10427301;28;20044;-79
2021/07/24 15:32:36;;;;;;;6.85;4.93;;;;;;;;;;10415387;28;20461;-83
2021/07/24 15:37:37;;;;;;;6.05;4.22;;;;;;;;;;10442103;28;20136;-82
2021/07/24 15:42:37;;;;;;;5.07;4.57;;;;;;;;;;10399635;28;20127;-86
2021/07/24 15:47:38;;;;;;;5.95;4.63;;;;;;;;;;10419259;28;20071;-85
2021/07/24 15:52:39;;;;;;;7.10;5.13;;;;;;;;;;10413375;28;20041;-85
2021/07/24 15:57:39;;;;;;;4.63;4.15;;;;;;;;;;10422899;28;20358;-84
2021/07/24 16:02:39;;;;;;;7.03;5.00;;;;;;;;;;10403368;28;20025;-86
2021/07/24 16:07:40;;;;;;;6.07;4.23;;;;;;;;;;10431264;28;20029;-86
2021/07/24 16:12:40;;;;;;;6.17;4.63;;;;;;;;;;10426889;28;20438;-86
2021/07/24 16:17:41;;;;;;;6.13;5.10;;;;;;;;;;10417369;28;20056;-85
2021/07/24 16:22:41;;;;;;;5.80;4.57;;;;;;;;;;10419675;28;20053;-85
2021/07/24 16:27:41;;;;;;;6.47;4.70;;;;;;;;;;10424634;28;20033;-86
2021/07/24 16:32:42;;;;;;;5.70;4.77;;;;;;;;;;10413412;28;20033;-85
2021/07/24 16:37:42;;;;;;;6.33;5.37;;;;;;;;;;10445791;28;20478;-85
2021/07/24 16:42:43;;;;;;;5.90;5.03;;;;;;;;;;10446158;28;20036;-85
2021/07/24 16:47:43;;;;;;;6.53;4.90;;;;;;;;;;10455167;28;20029;-86
2021/07/24 16:52:44;;;;;;;6.90;4.67;;;;;;;;;;10415352;28;20033;-85
2021/07/24 16:57:44;;;;;;;6.17;4.60;;;;;;;;;;10424067;28;20443;-85
2021/07/24 17:02:45;;;;;;;4.80;4.30;;;;;;;;;;10415384;28;20442;-85
2021/07/24 17:07:45;;;;;;;5.83;4.50;;;;;;;;;;10430093;28;20487;-85
2021/07/24 17:12:45;;;;;;;6.23;5.00;;;;;;;;;;10411938;28;20108;-86
2021/07/24 17:17:46;;;;;;;8.47;4.77;;;;;;;;;;10410598;28;21047;-86
2021/07/24 17:22:46;;;;;;;5.43;4.93;;;;;;;;;;10417246;28;20111;-85
2021/07/24 17:27:47;;;;;;;5.10;4.60;;;;;;;;;;10424971;28;20033;-86
2021/07/24 17:32:47;;;;;;;8.83;4.80;;;;;;;;;;10404285;28;20439;-83
2021/07/24 17:37:47;;;;;;;8.10;5.53;;;;;;;;;;10414018;28;20359;-79
2021/07/24 17:42:48;;;;;;;7.27;5.50;;;;;;;;;;10419462;28;20504;-80
2021/07/24 17:47:48;;;;;;;13.80;5.80;;;;;;;;;;10417638;28;20060;-81
2021/07/24 17:52:48;;;;;;;8.93;5.47;;;;;;;;;;10417591;28;20033;-81
2021/07/24 17:57:50;;;;;;;8.90;5.93;;;;;;;;;;10402936;28;20060;-81
2021/07/24 18:02:51;;;;;;;6.45;5.60;;;;;;;;;;10430345;28;20034;-80
2021/07/24 18:07:51;;;;;;;9.27;6.30;;;;;;;;;;10430466;28;20487;-80
2021/07/24 18:12:51;;;;;;;7.40;6.13;;;;;;;;;;10426811;28;20029;-80
2021/07/24 18:17:52;;;;;;;15.50;6.50;;;;;;;;;;10415452;28;20030;-80
2021/07/24 18:22:53;;;;;;;7.07;6.37;;;;;;;;;;10416388;28;20776;-81
2021/07/24 18:27:53;;;;;;;8.50;6.60;;;;;;;;;;10415112;28;20025;-80
2021/07/24 18:32:54;;;;;;;9.52;6.82;;;;;;;;;;10416497;28;20033;-80
2021/07/24 18:37:54;;;;;;;10.82;7.15;;;;;;;;;;10437716;23;20102;-82
2021/07/24 18:42:55;;;;;;;11.77;6.63;;;;;;;;;;10412884;28;20045;-89
2021/07/24 18:47:55;;;;;;;15.38;7.35;;;;;;;;;;10410732;28;20033;-83
2021/07/24 18:52:56;;;;;;;12.97;7.10;;;;;;;;;;10409237;28;20029;-82
2021/07/24 18:57:58;;;;;;;12.45;7.45;;;;;;;;;;10414885;28;20133;-82
2021/07/24 19:03:00;;;;;;;10.15;7.30;;;;;;;;;;10414354;28;20124;-82
2021/07/24 19:20:06;;;;;;;13.27;7.82;;;;;;;;;;10414659;28;20108;-81
2021/07/24 19:25:07;;;;;;;10.52;7.30;;;;;;;;;;10413006;28;20084;-82
2021/07/24 19:30:07;;;;;;;10.23;6.80;;;;;;;;;;10414112;28;20033;-82
2021/07/24 19:35:08;;;;;;;19.20;8.23;;;;;;;;;;10422215;28;20037;-82
2021/07/24 19:40:09;;;;;;;15.77;8.05;;;;;;;;;;10422773;28;20037;-82
2021/07/24 19:45:10;;;;;;;20.73;7.65;;;;;;;;;;10421704;28;20041;-82
2021/07/24 19:50:10;;;;;;;9.85;7.93;;;;;;;;;;10421248;28;20116;-82
2021/07/24 19:55:11;;;;;;;13.80;7.78;;;;;;;;;;10421837;28;20036;-82
2021/07/24 20:00:12;;;;;;;10.15;7.53;;;;;;;;;;10421353;28;20095;-83
2021/07/24 20:05:12;;;;;;;12.73;7.57;;;;;;;;;;10418752;28;20034;-81
2021/07/24 20:10:13;;;;;;;13.27;7.67;;;;;;;;;;10419742;28;20037;-82
2021/07/24 20:15:14;;;;;;;9.27;7.67;;;;;;;;;;10419736;28;20840;-82
2021/07/24 20:20:15;;;;;;;9.75;6.90;;;;;;;;;;10418949;28;20486;-81
2021/07/24 20:25:15;;;;;;;16.00;7.90;;;;;;;;;;10420803;28;20060;-82
2021/07/24 22:10:28;;;;;;;14.20;7.45;;;;;;;;;;10616922;27;20645;-88
2021/07/24 22:15:29;;;;;;;12.63;7.03;;;;;;;;;;10616518;28;20458;-88
2021/07/24 22:20:32;;;;;;;8.45;6.63;;;;;;;;;;10598299;28;20761;-86
2021/07/24 22:25:32;;;;;;;7.30;6.53;;;;;;;;;;10595799;28;20040;-85
2021/07/24 22:30:35;;;;;;;11.97;7.23;;;;;;;;;;10591794;28;20059;-85
2021/07/24 22:35:36;;;;;;;8.10;6.32;;;;;;;;;;10597200;28;20456;-91
2021/07/24 22:40:36;;;;;;;12.45;6.80;;;;;;;;;;10566978;28;20065;-84
2021/07/24 22:45:37;;;;;;;8.48;6.35;;;;;;;;;;10627807;28;20019;-82
2021/07/24 22:50:38;;;;;;;8.77;6.15;;;;;;;;;;10619009;28;20031;-83
2021/07/24 22:55:38;;;;;;;8.47;5.77;;;;;;;;;;10626474;28;20019;-83
2021/07/24 23:00:38;;;;;;;7.73;5.80;;;;;;;;;;10629162;28;20358;-82
2021/07/24 23:05:39;;;;;;;10.10;5.38;;;;;;;;;;10614546;28;20436;-83
2021/07/24 23:10:40;;;;;;;6.28;5.18;;;;;;;;;;10554627;28;20038;-84
2021/07/24 23:15:40;;;;;;;11.70;6.03;;;;;;;;;;10586819;28;20051;-82
2021/07/24 23:20:41;;;;;;;10.75;5.15;;;;;;;;;;10586441;28;20103;-83
2021/07/24 23:25:41;;;;;;;6.50;5.33;;;;;;;;;;10581271;28;20032;-85
2021/07/24 23:30:41;;;;;;;6.43;5.15;;;;;;;;;;10572185;28;20020;-85
2021/07/24 23:35:42;;;;;;;6.63;5.23;;;;;;;;;;10571465;28;20394;-83
2021/07/24 23:40:42;;;;;;;5.88;5.25;;;;;;;;;;10557057;28;20032;-84
2021/07/24 23:45:43;;;;;;;8.68;5.00;;;;;;;;;;10567213;28;20032;-80
2021/07/24 23:50:43;;;;;;;6.85;5.30;;;;;;;;;;10580776;28;20351;-82
2021/07/24 23:55:44;;;;;;;5.97;4.83;;;;;;;;;;10591511;28;20550;-81
